Time;durP1;ratioP1;P1;durP2;ratioP2;P2;SDS_P1;SDS_P2;PMS_P1;PMS_P2;Temp;Humidity;BMP_temperature;BMP_pressure;BME280_temperature;BME280_humidity;BME280_pressure;Samples;Min_cycle;Max_cycle;Signal;HPM_P1;HPM_P2
2022/09/21 00:01:17;;;;;;;6.57;2.63;;;;;;;;;;5066606;28;20024;-81
2022/09/21 00:03:43;;;;;;;3.67;1.88;;;;;;;;;;5065261;28;20044;-77
2022/09/21 00:06:11;;;;;;;3.90;2.30;;;;;;;;;;5058220;28;20032;-76
2022/09/21 00:08:38;;;;;;;6.03;2.72;;;;;;;;;;5056359;28;20025;-77
2022/09/21 00:11:04;;;;;;;4.50;2.10;;;;;;;;;;5054792;28;20732;-77
2022/09/21 00:13:32;;;;;;;2.63;2.10;;;;;;;;;;5057634;28;20128;-74
2022/09/21 00:15:58;;;;;;;4.32;2.20;;;;;;;;;;5059505;28;20411;-75
2022/09/21 00:18:25;;;;;;;7.22;2.00;;;;;;;;;;5059953;28;20425;-75
2022/09/21 00:20:51;;;;;;;2.42;1.85;;;;;;;;;;5059206;28;20095;-75
2022/09/21 00:23:18;;;;;;;2.78;1.90;;;;;;;;;;5053799;28;20049;-75
2022/09/21 00:25:44;;;;;;;4.85;2.28;;;;;;;;;;5058169;28;20012;-75
2022/09/21 00:28:10;;;;;;;5.28;2.08;;;;;;;;;;5054511;28;20098;-75
2022/09/21 00:30:37;;;;;;;2.85;1.85;;;;;;;;;;5057800;28;20451;-74
2022/09/21 00:33:03;;;;;;;4.85;2.30;;;;;;;;;;5058371;28;20492;-75
2022/09/21 00:35:29;;;;;;;3.20;1.88;;;;;;;;;;5055489;28;20028;-74
2022/09/21 00:37:55;;;;;;;3.58;1.90;;;;;;;;;;5057986;28;20025;-74
2022/09/21 00:40:21;;;;;;;4.55;2.22;;;;;;;;;;5055275;28;20089;-75
2022/09/21 00:42:47;;;;;;;2.83;1.60;;;;;;;;;;5056284;28;20107;-74
2022/09/21 00:45:19;;;;;;;5.15;2.47;;;;;;;;;;5059179;28;20048;-75
2022/09/21 00:47:48;;;;;;;4.15;2.10;;;;;;;;;;5053464;28;20032;-78
2022/09/21 00:50:16;;;;;;;4.82;2.03;;;;;;;;;;5054783;28;20045;-78
2022/09/21 00:52:44;;;;;;;4.82;1.90;;;;;;;;;;5052909;28;20021;-77
2022/09/21 00:55:11;;;;;;;3.67;2.03;;;;;;;;;;5054660;28;20040;-77
2022/09/21 00:57:38;;;;;;;2.65;2.22;;;;;;;;;;5050718;28;20031;-78
2022/09/21 01:00:07;;;;;;;4.40;2.10;;;;;;;;;;5054665;28;20510;-78
2022/09/21 01:02:34;;;;;;;3.55;2.10;;;;;;;;;;5057017;28;20040;-78
2022/09/21 01:05:00;;;;;;;2.97;2.22;;;;;;;;;;5053237;28;20035;-77
2022/09/21 01:07:29;;;;;;;3.22;2.13;;;;;;;;;;5053940;28;20024;-76
2022/09/21 01:09:57;;;;;;;5.97;2.17;;;;;;;;;;5052304;28;20477;-78
2022/09/21 01:12:29;;;;;;;4.18;2.20;;;;;;;;;;5053629;28;20495;-77
2022/09/21 01:15:12;;;;;;;3.70;2.05;;;;;;;;;;5053328;28;20616;-77
2022/09/21 01:17:57;;;;;;;2.95;1.80;;;;;;;;;;5052132;28;20022;-76
2022/09/21 01:20:49;;;;;;;5.00;2.33;;;;;;;;;;5055232;28;20025;-78
2022/09/21 01:23:34;;;;;;;3.47;2.00;;;;;;;;;;5071766;28;20032;-77
2022/09/21 01:26:23;;;;;;;4.88;2.03;;;;;;;;;;5055922;28;20116;-77
2022/09/21 01:29:01;;;;;;;4.03;1.92;;;;;;;;;;5051568;28;20024;-76
2022/09/21 01:31:31;;;;;;;3.22;2.17;;;;;;;;;;5052966;28;20026;-77
2022/09/21 01:34:01;;;;;;;6.07;2.30;;;;;;;;;;5055898;28;20077;-77
2022/09/21 01:36:30;;;;;;;2.60;1.83;;;;;;;;;;5050863;28;20107;-77
2022/09/21 01:39:00;;;;;;;4.45;2.05;;;;;;;;;;5053273;28;20025;-77
2022/09/21 01:41:28;;;;;;;5.80;2.10;;;;;;;;;;5053667;28;20085;-77
2022/09/21 01:43:57;;;;;;;4.43;2.17;;;;;;;;;;5055542;28;20515;-77
2022/09/21 01:46:26;;;;;;;3.25;1.80;;;;;;;;;;5069034;28;20389;-76
2022/09/21 01:48:54;;;;;;;6.18;2.40;;;;;;;;;;5053530;28;20032;-77
2022/09/21 01:51:22;;;;;;;3.05;1.98;;;;;;;;;;5052298;28;20045;-77
2022/09/21 01:53:48;;;;;;;3.00;1.80;;;;;;;;;;5053773;28;20021;-75
2022/09/21 01:56:26;;;;;;;3.53;2.03;;;;;;;;;;5048908;28;20036;-77
2022/09/21 01:58:55;;;;;;;3.78;2.00;;;;;;;;;;5050626;28;20028;-76
2022/09/21 02:01:25;;;;;;;4.03;2.00;;;;;;;;;;5051446;28;20021;-77
2022/09/21 02:03:56;;;;;;;3.13;1.92;;;;;;;;;;5051880;28;20036;-77
2022/09/21 02:06:25;;;;;;;2.92;1.90;;;;;;;;;;5050774;28;20098;-77
2022/09/21 02:08:52;;;;;;;3.42;1.90;;;;;;;;;;5055551;28;20027;-77
2022/09/21 02:11:18;;;;;;;3.78;1.88;;;;;;;;;;5051935;28;20028;-77
2022/09/21 02:13:46;;;;;;;4.35;2.30;;;;;;;;;;5053841;28;20028;-77
2022/09/21 02:16:15;;;;;;;3.30;1.88;;;;;;;;;;5051979;28;20682;-77
2022/09/21 02:18:41;;;;;;;3.47;2.25;;;;;;;;;;5052645;28;20507;-77
2022/09/21 02:21:10;;;;;;;2.75;1.70;;;;;;;;;;5052966;28;20075;-77
2022/09/21 02:23:44;;;;;;;4.25;2.13;;;;;;;;;;5051102;28;20475;-77
2022/09/21 02:26:36;;;;;;;3.38;2.03;;;;;;;;;;5055132;28;20027;-77
2022/09/21 02:29:25;;;;;;;5.05;2.15;;;;;;;;;;5043825;28;20041;-77
2022/09/21 02:31:55;;;;;;;3.22;2.17;;;;;;;;;;5052191;28;20024;-77
2022/09/21 02:34:33;;;;;;;3.05;2.17;;;;;;;;;;5052370;28;20054;-77
2022/09/21 02:37:05;;;;;;;3.80;1.70;;;;;;;;;;5052337;28;20021;-77
2022/09/21 02:39:38;;;;;;;3.05;1.70;;;;;;;;;;5054615;28;20052;-76
2022/09/21 02:42:04;;;;;;;2.40;1.70;;;;;;;;;;5052024;28;20021;-78
2022/09/21 02:44:34;;;;;;;4.18;1.92;;;;;;;;;;5053846;28;20040;-77
2022/09/21 02:47:11;;;;;;;4.25;1.83;;;;;;;;;;5051690;28;20090;-77
2022/09/21 02:49:40;;;;;;;2.38;1.80;;;;;;;;;;5053844;28;20052;-78
2022/09/21 02:52:12;;;;;;;6.07;1.90;;;;;;;;;;5051386;28;20021;-78
2022/09/21 02:54:38;;;;;;;;;;;;;;;;;;5053679;28;20107;-78
2022/09/21 02:57:05;;;;;;;4.40;1.90;;;;;;;;;;5050934;28;20348;-78
2022/09/21 02:59:31;;;;;;;1.95;1.50;;;;;;;;;;5051101;28;20017;-77
2022/09/21 03:01:58;;;;;;;2.97;1.85;;;;;;;;;;5054290;28;20038;-77
2022/09/21 03:04:24;;;;;;;3.03;1.65;;;;;;;;;;5048707;28;20519;-77
2022/09/21 03:06:51;;;;;;;3.25;1.40;;;;;;;;;;5054697;28;20037;-78
2022/09/21 03:09:17;;;;;;;3.00;1.52;;;;;;;;;;5049744;28;20023;-77
2022/09/21 03:11:43;;;;;;;2.40;1.73;;;;;;;;;;5053130;28;20078;-78
2022/09/21 03:14:09;;;;;;;3.67;1.80;;;;;;;;;;5053641;28;20089;-78
2022/09/21 03:16:36;;;;;;;4.47;1.80;;;;;;;;;;5054016;28;20024;-77
2022/09/21 03:19:02;;;;;;;3.08;1.60;;;;;;;;;;5055176;28;20051;-78
2022/09/21 03:21:28;;;;;;;5.07;1.85;;;;;;;;;;5066271;28;20090;-77
2022/09/21 03:23:54;;;;;;;3.40;1.90;;;;;;;;;;5054805;28;20032;-77
2022/09/21 03:26:21;;;;;;;3.13;1.77;;;;;;;;;;5050150;28;20021;-76
2022/09/21 03:28:48;;;;;;;3.08;1.98;;;;;;;;;;5054041;28;20029;-77
2022/09/21 03:31:15;;;;;;;2.58;1.70;;;;;;;;;;5055240;28;20591;-77
2022/09/21 03:33:41;;;;;;;4.63;1.75;;;;;;;;;;5052938;28;20111;-78
2022/09/21 03:36:08;;;;;;;2.75;1.77;;;;;;;;;;5052746;28;20031;-77
2022/09/21 03:38:35;;;;;;;2.78;1.77;;;;;;;;;;5051924;28;20024;-77
2022/09/21 03:41:01;;;;;;;4.22;1.63;;;;;;;;;;5054253;28;20051;-77
2022/09/21 03:43:27;;;;;;;2.55;1.85;;;;;;;;;;5056122;28;20094;-77
2022/09/21 03:45:53;;;;;;;5.57;1.90;;;;;;;;;;5050651;28;20083;-77
2022/09/21 03:48:20;;;;;;;3.45;1.65;;;;;;;;;;5054903;28;20029;-76
2022/09/21 03:50:46;;;;;;;2.83;1.85;;;;;;;;;;5049485;28;20071;-76
2022/09/21 03:53:13;;;;;;;2.67;1.80;;;;;;;;;;5053927;28;20024;-77
2022/09/21 03:55:39;;;;;;;3.08;2.05;;;;;;;;;;5050468;28;20048;-77
2022/09/21 03:58:06;;;;;;;2.85;1.77;;;;;;;;;;5052369;28;20033;-77
2022/09/21 04:00:33;;;;;;;4.78;1.92;;;;;;;;;;5054810;28;20031;-76
2022/09/21 04:03:00;;;;;;;2.60;1.70;;;;;;;;;;5067228;28;20116;-77
2022/09/21 04:05:27;;;;;;;2.17;1.77;;;;;;;;;;5054240;28;20127;-77
2022/09/21 04:07:54;;;;;;;4.78;2.60;;;;;;;;;;5049958;28;20017;-77
2022/09/21 04:10:25;;;;;;;3.08;2.00;;;;;;;;;;5053617;28;20112;-77
2022/09/21 04:12:52;;;;;;;3.97;2.13;;;;;;;;;;5052643;28;20025;-77
2022/09/21 04:15:19;;;;;;;3.47;2.47;;;;;;;;;;5052576;28;20024;-78
2022/09/21 04:17:50;;;;;;;3.65;1.73;;;;;;;;;;5052690;28;20025;-78
2022/09/21 04:20:16;;;;;;;;;;;;;;;;;;5051915;28;20086;-77
2022/09/21 04:22:43;;;;;;;3.85;2.00;;;;;;;;;;5051965;28;19927;-78
2022/09/21 04:25:11;;;;;;;2.78;1.83;;;;;;;;;;5051904;28;20218;-77
2022/09/21 04:27:38;;;;;;;3.65;2.22;;;;;;;;;;5050382;28;20017;-77
2022/09/21 04:30:05;;;;;;;3.95;1.90;;;;;;;;;;5051491;28;20029;-77
2022/09/21 04:32:31;;;;;;;2.97;2.17;;;;;;;;;;5053289;28;20380;-76
2022/09/21 04:34:57;;;;;;;3.58;1.92;;;;;;;;;;5053839;28;20035;-77
2022/09/21 04:37:23;;;;;;;5.57;1.70;;;;;;;;;;5049958;28;20075;-78
2022/09/21 04:39:49;;;;;;;2.97;1.92;;;;;;;;;;5052433;28;20044;-77
2022/09/21 04:42:15;;;;;;;2.92;1.90;;;;;;;;;;5051178;28;20104;-77
2022/09/21 04:44:41;;;;;;;3.60;1.95;;;;;;;;;;5051723;28;20051;-77
2022/09/21 04:47:07;;;;;;;3.17;1.77;;;;;;;;;;5052642;28;20025;-77
2022/09/21 04:49:34;;;;;;;3.00;1.67;;;;;;;;;;5051163;28;20052;-77
2022/09/21 04:52:00;;;;;;;2.80;1.70;;;;;;;;;;5051621;28;20032;-76
2022/09/21 04:54:26;;;;;;;3.78;2.10;;;;;;;;;;5050599;28;20025;-77
2022/09/21 04:56:52;;;;;;;2.72;1.95;;;;;;;;;;5054948;28;20545;-77
2022/09/21 04:59:18;;;;;;;2.45;2.10;;;;;;;;;;5050606;28;20037;-76
2022/09/21 05:01:44;;;;;;;4.22;2.35;;;;;;;;;;5049943;28;20073;-77
2022/09/21 05:04:11;;;;;;;3.67;1.92;;;;;;;;;;5050676;28;20500;-77
2022/09/21 05:06:37;;;;;;;3.85;2.33;;;;;;;;;;5050935;28;20322;-78
2022/09/21 05:11:48;;;;;;;5.03;2.42;;;;;;;;;;5053512;28;20176;-75
2022/09/21 05:14:14;;;;;;;2.83;2.05;;;;;;;;;;5050336;28;20556;-74
2022/09/21 05:16:41;;;;;;;3.58;2.03;;;;;;;;;;5051341;28;20029;-75
2022/09/21 05:19:07;;;;;;;2.85;1.90;;;;;;;;;;5055282;28;20027;-76
2022/09/21 05:21:33;;;;;;;3.20;2.22;;;;;;;;;;5049472;28;20032;-76
2022/09/21 05:23:59;;;;;;;5.47;2.28;;;;;;;;;;5051996;28;20071;-75
2022/09/21 05:26:25;;;;;;;2.58;2.22;;;;;;;;;;5049677;28;20039;-76
2022/09/21 05:28:52;;;;;;;5.93;2.58;;;;;;;;;;5053069;28;20021;-75
2022/09/21 05:31:19;;;;;;;4.60;2.30;;;;;;;;;;5049110;28;20462;-74
2022/09/21 05:33:51;;;;;;;3.20;2.17;;;;;;;;;;5051404;28;20053;-76
2022/09/21 05:36:36;;;;;;;5.47;2.22;;;;;;;;;;5049165;28;20021;-74
2022/09/21 05:39:02;;;;;;;6.22;2.67;;;;;;;;;;5049897;28;20640;-77
2022/09/21 05:41:29;;;;;;;24.45;3.95;;;;;;;;;;5050070;28;20119;-79
2022/09/21 05:43:55;;;;;;;8.73;3.00;;;;;;;;;;5048546;28;20613;-73
2022/09/21 05:46:33;;;;;;;5.88;3.65;;;;;;;;;;5052658;28;20390;-76
2022/09/21 05:49:02;;;;;;;6.43;3.05;;;;;;;;;;5049914;28;20412;-74
2022/09/21 05:51:37;;;;;;;7.90;3.50;;;;;;;;;;5051820;28;20037;-74
2022/09/21 05:54:04;;;;;;;5.82;4.10;;;;;;;;;;5047010;28;20070;-73
2022/09/21 05:56:39;;;;;;;7.70;3.90;;;;;;;;;;5056160;28;20428;-74
2022/09/21 05:59:23;;;;;;;9.52;3.65;;;;;;;;;;5048836;28;20024;-75
2022/09/21 06:02:08;;;;;;;8.93;4.32;;;;;;;;;;5052368;28;20075;-75
2022/09/21 06:04:34;;;;;;;10.65;3.58;;;;;;;;;;5052654;28;20698;-74
2022/09/21 06:07:00;;;;;;;6.32;3.30;;;;;;;;;;5060235;28;20032;-74
2022/09/21 06:09:26;;;;;;;5.15;2.78;;;;;;;;;;5055031;28;20067;-74
2022/09/21 06:11:53;;;;;;;6.45;3.30;;;;;;;;;;5049225;28;20017;-73
2022/09/21 06:14:23;;;;;;;6.25;3.28;;;;;;;;;;5055662;28;20025;-74
2022/09/21 06:16:50;;;;;;;4.55;3.25;;;;;;;;;;5052801;28;20033;-75
2022/09/21 06:19:16;;;;;;;10.15;5.75;;;;;;;;;;5056391;28;20012;-73
2022/09/21 06:21:42;;;;;;;10.45;5.10;;;;;;;;;;5050672;28;20037;-74
2022/09/21 06:24:08;;;;;;;6.95;4.72;;;;;;;;;;5053266;28;20047;-74
2022/09/21 06:26:34;;;;;;;7.55;4.15;;;;;;;;;;5055443;28;20020;-74
2022/09/21 06:29:01;;;;;;;7.47;3.33;;;;;;;;;;5054157;28;20025;-75
2022/09/21 06:31:27;;;;;;;6.28;3.75;;;;;;;;;;5056838;28;20027;-74
2022/09/21 06:33:53;;;;;;;4.65;2.60;;;;;;;;;;5059830;28;20016;-72
2022/09/21 06:36:20;;;;;;;5.60;2.63;;;;;;;;;;5051968;28;20037;-75
2022/09/21 06:38:46;;;;;;;4.50;2.30;;;;;;;;;;5056932;28;20039;-75
2022/09/21 06:41:13;;;;;;;3.67;1.95;;;;;;;;;;5050209;28;20048;-75
2022/09/21 06:43:39;;;;;;;2.45;1.80;;;;;;;;;;5056378;28;20037;-73
2022/09/21 06:46:05;;;;;;;4.00;1.80;;;;;;;;;;5052663;28;20012;-75
2022/09/21 06:48:32;;;;;;;1.98;1.52;;;;;;;;;;5054667;28;20024;-75
2022/09/21 06:51:15;;;;;;;2.42;1.70;;;;;;;;;;5047159;28;20148;-79
2022/09/21 06:56:28;;;;;;;2.90;1.98;;;;;;;;;;5051770;28;20080;-78
2022/09/21 06:58:57;;;;;;;4.43;2.00;;;;;;;;;;5049629;28;20033;-79
2022/09/21 07:01:23;;;;;;;2.40;1.73;;;;;;;;;;5065391;28;20025;-79
2022/09/21 07:03:50;;;;;;;3.05;1.63;;;;;;;;;;5049455;28;20559;-81
2022/09/21 07:06:17;;;;;;;2.60;2.00;;;;;;;;;;5058221;28;20429;-81
2022/09/21 07:08:44;;;;;;;3.08;1.80;;;;;;;;;;5059612;28;20058;-81
2022/09/21 07:11:11;;;;;;;2.50;1.85;;;;;;;;;;5054525;28;20032;-80
2022/09/21 07:13:37;;;;;;;2.60;1.73;;;;;;;;;;5047936;28;20028;-80
2022/09/21 07:16:08;;;;;;;2.40;1.95;;;;;;;;;;5044982;28;20012;-80
2022/09/21 07:18:34;;;;;;;3.38;1.50;;;;;;;;;;5046553;28;20603;-79
2022/09/21 07:21:07;;;;;;;3.67;1.80;;;;;;;;;;5045100;28;20480;-78
2022/09/21 07:23:33;;;;;;;3.85;1.77;;;;;;;;;;5049221;28;20496;-78
2022/09/21 07:26:04;;;;;;;3.78;1.63;;;;;;;;;;5048093;28;20028;-80
2022/09/21 07:28:31;;;;;;;3.30;1.63;;;;;;;;;;5048411;28;20097;-78
2022/09/21 07:30:57;;;;;;;7.00;2.28;;;;;;;;;;5055187;28;20054;-78
2022/09/21 07:33:24;;;;;;;4.55;2.20;;;;;;;;;;5053099;28;20956;-81
2022/09/21 07:35:55;;;;;;;3.08;2.10;;;;;;;;;;5051617;28;20040;-75
2022/09/21 07:38:22;;;;;;;2.78;2.08;;;;;;;;;;5051716;28;20091;-75
2022/09/21 07:40:49;;;;;;;5.45;2.10;;;;;;;;;;5047413;28;20107;-75
2022/09/21 07:43:15;;;;;;;2.90;2.20;;;;;;;;;;5050257;28;20040;-75
2022/09/21 07:45:41;;;;;;;2.50;1.70;;;;;;;;;;5048182;28;20489;-75
2022/09/21 07:48:08;;;;;;;3.80;2.25;;;;;;;;;;5053182;28;20085;-75
2022/09/21 07:50:34;;;;;;;3.15;1.88;;;;;;;;;;5052670;28;20044;-75
2022/09/21 07:53:03;;;;;;;3.35;1.73;;;;;;;;;;5051566;28;20029;-74
2022/09/21 07:55:30;;;;;;;2.22;1.60;;;;;;;;;;5053549;28;20020;-74
2022/09/21 08:00:41;;;;;;;2.20;1.85;;;;;;;;;;5051932;28;20710;-75
2022/09/21 08:03:07;;;;;;;7.60;2.25;;;;;;;;;;5056649;28;20033;-74
2022/09/21 08:05:33;;;;;;;6.13;2.30;;;;;;;;;;5056880;28;20024;-75
2022/09/21 08:07:59;;;;;;;4.07;1.98;;;;;;;;;;5056318;28;20388;-74
2022/09/21 08:10:26;;;;;;;3.90;1.83;;;;;;;;;;5056818;28;20025;-75
2022/09/21 08:12:53;;;;;;;4.25;1.95;;;;;;;;;;5055260;28;20036;-75
2022/09/21 08:15:19;;;;;;;3.67;1.90;;;;;;;;;;5051709;28;20027;-75
2022/09/21 08:17:45;;;;;;;3.65;2.00;;;;;;;;;;5054387;28;20436;-75
2022/09/21 08:20:12;;;;;;;2.45;1.73;;;;;;;;;;5058896;28;20317;-75
2022/09/21 08:22:39;;;;;;;4.60;2.10;;;;;;;;;;5057421;28;20028;-75
2022/09/21 08:25:05;;;;;;;2.60;1.73;;;;;;;;;;5049112;28;20029;-75
2022/09/21 08:27:31;;;;;;;2.40;2.00;;;;;;;;;;5055096;28;20063;-73
2022/09/21 08:29:58;;;;;;;3.05;2.08;;;;;;;;;;5052300;28;20380;-75
2022/09/21 08:32:24;;;;;;;3.53;1.88;;;;;;;;;;5049561;28;20381;-75
2022/09/21 08:34:50;;;;;;;3.47;1.98;;;;;;;;;;5053984;28;20024;-74
2022/09/21 08:37:18;;;;;;;3.97;1.98;;;;;;;;;;5055705;28;20041;-75
2022/09/21 08:39:44;;;;;;;3.35;2.22;;;;;;;;;;5057480;28;20029;-75
2022/09/21 08:42:13;;;;;;;5.03;2.35;;;;;;;;;;5048621;28;20032;-74
2022/09/21 08:44:48;;;;;;;6.30;2.60;;;;;;;;;;5051956;28;20033;-75
2022/09/21 08:47:19;;;;;;;3.70;2.28;;;;;;;;;;5054389;28;20021;-75
2022/09/21 08:49:45;;;;;;;;;;;;;;;;;;5044889;28;20307;-75
2022/09/21 08:52:12;;;;;;;5.78;2.83;;;;;;;;;;5046329;28;19908;-75
2022/09/21 08:54:51;;;;;;;7.07;3.25;;;;;;;;;;5050467;28;21498;-75
2022/09/21 08:57:18;;;;;;;5.20;2.88;;;;;;;;;;5047882;28;20025;-74
2022/09/21 08:59:48;;;;;;;3.83;2.60;;;;;;;;;;5045463;28;20021;-75
2022/09/21 09:02:29;;;;;;;5.28;3.20;;;;;;;;;;5049324;28;20064;-75
2022/09/21 09:05:08;;;;;;;4.30;2.75;;;;;;;;;;5045776;28;20029;-75
2022/09/21 09:07:44;;;;;;;4.10;2.33;;;;;;;;;;5045497;28;20029;-75
2022/09/21 09:10:29;;;;;;;3.55;2.42;;;;;;;;;;5048214;28;20179;-76
2022/09/21 09:13:07;;;;;;;5.18;2.22;;;;;;;;;;5044579;28;20013;-75
2022/09/21 09:15:51;;;;;;;3.60;2.20;;;;;;;;;;5049115;28;20028;-73
2022/09/21 09:18:24;;;;;;;3.83;2.72;;;;;;;;;;5061492;28;20361;-75
2022/09/21 09:20:57;;;;;;;3.63;2.33;;;;;;;;;;5044017;28;20033;-75
2022/09/21 09:23:32;;;;;;;4.13;2.10;;;;;;;;;;5045543;28;20036;-74
2022/09/21 09:26:18;;;;;;;3.28;2.53;;;;;;;;;;5050337;28;20020;-75
2022/09/21 09:28:51;;;;;;;3.42;2.35;;;;;;;;;;5050761;28;20048;-74
2022/09/21 09:31:33;;;;;;;3.85;2.35;;;;;;;;;;5057458;28;20082;-74
2022/09/21 09:34:06;;;;;;;3.25;2.35;;;;;;;;;;5056230;28;20017;-74
2022/09/21 09:36:33;;;;;;;3.28;2.60;;;;;;;;;;5050347;28;20024;-74
2022/09/21 09:39:05;;;;;;;3.72;2.80;;;;;;;;;;5049619;28;20104;-73
2022/09/21 09:41:49;;;;;;;4.97;2.38;;;;;;;;;;5051551;28;20029;-73
2022/09/21 09:44:15;;;;;;;3.97;2.40;;;;;;;;;;5049794;28;20388;-73
2022/09/21 09:46:45;;;;;;;4.40;2.03;;;;;;;;;;5050591;28;20024;-75
2022/09/21 09:49:32;;;;;;;3.92;2.20;;;;;;;;;;5048473;28;20037;-74
2022/09/21 09:51:58;;;;;;;3.83;2.40;;;;;;;;;;5054133;28;20041;-73
2022/09/21 09:54:26;;;;;;;6.65;2.25;;;;;;;;;;5049607;28;20171;-74
2022/09/21 09:56:54;;;;;;;6.07;3.00;;;;;;;;;;5051820;28;20427;-74
2022/09/21 09:59:36;;;;;;;3.72;2.42;;;;;;;;;;5047667;28;20175;-73
2022/09/21 10:02:08;;;;;;;6.45;2.38;;;;;;;;;;5049337;28;20025;-73
2022/09/21 10:04:34;;;;;;;4.07;2.25;;;;;;;;;;5048194;28;20037;-74
2022/09/21 10:07:00;;;;;;;4.38;2.50;;;;;;;;;;5052851;28;20047;-73
2022/09/21 10:09:28;;;;;;;2.88;1.98;;;;;;;;;;5052609;28;20020;-73
2022/09/21 10:11:57;;;;;;;3.67;2.20;;;;;;;;;;5054073;28;20024;-72
2022/09/21 10:14:25;;;;;;;4.30;1.92;;;;;;;;;;5054830;28;20031;-73
2022/09/21 10:16:51;;;;;;;3.08;2.10;;;;;;;;;;5055096;28;20146;-72
2022/09/21 10:19:24;;;;;;;3.25;1.80;;;;;;;;;;5055867;28;20047;-73
2022/09/21 10:22:01;;;;;;;3.22;1.77;;;;;;;;;;5054761;28;20032;-74
2022/09/21 10:24:34;;;;;;;2.15;1.50;;;;;;;;;;5057098;28;20028;-73
2022/09/21 10:27:12;;;;;;;3.22;1.73;;;;;;;;;;5053675;28;20110;-75
2022/09/21 10:29:39;;;;;;;2.30;1.42;;;;;;;;;;5056246;28;20477;-75
2022/09/21 10:32:17;;;;;;;2.90;1.52;;;;;;;;;;5053380;28;20032;-74
2022/09/21 10:35:19;;;;;;;2.65;1.45;;;;;;;;;;5056313;28;20463;-74
2022/09/21 10:37:49;;;;;;;5.72;1.50;;;;;;;;;;5034215;28;20363;-75
2022/09/21 10:40:22;;;;;;;2.00;1.50;;;;;;;;;;5045491;28;20033;-75
2022/09/21 10:42:49;;;;;;;1.75;1.40;;;;;;;;;;5050599;28;20086;-75
2022/09/21 10:45:15;;;;;;;3.65;1.58;;;;;;;;;;5052165;28;20032;-75
2022/09/21 10:47:43;;;;;;;2.88;1.38;;;;;;;;;;5064097;28;20025;-75
2022/09/21 10:50:39;;;;;;;3.08;1.50;;;;;;;;;;5051135;28;20036;-75
2022/09/21 10:53:08;;;;;;;2.58;1.40;;;;;;;;;;5046768;28;20040;-75
2022/09/21 10:55:37;;;;;;;1.92;1.20;;;;;;;;;;5048852;28;20577;-74
2022/09/21 10:58:08;;;;;;;3.33;1.33;;;;;;;;;;5050334;28;20028;-75
2022/09/21 11:00:40;;;;;;;1.80;1.27;;;;;;;;;;5047723;28;20017;-74
2022/09/21 11:03:27;;;;;;;1.95;1.30;;;;;;;;;;5049750;28;20397;-74
2022/09/21 11:05:53;;;;;;;4.55;1.55;;;;;;;;;;5052479;28;20119;-74
2022/09/21 11:08:23;;;;;;;2.00;1.20;;;;;;;;;;5052274;28;20086;-73
2022/09/21 11:10:53;;;;;;;3.00;1.40;;;;;;;;;;5056389;28;20024;-74
2022/09/21 11:13:38;;;;;;;2.30;1.77;;;;;;;;;;5053710;28;20465;-74
2022/09/21 11:16:24;;;;;;;2.45;1.15;;;;;;;;;;5052389;28;20078;-74
2022/09/21 11:18:53;;;;;;;3.08;1.30;;;;;;;;;;5045215;28;20056;-73
2022/09/21 11:21:26;;;;;;;2.55;1.48;;;;;;;;;;5054469;28;20506;-75
2022/09/21 11:24:11;;;;;;;2.20;1.30;;;;;;;;;;5056570;28;20044;-76
2022/09/21 11:26:43;;;;;;;4.90;1.20;;;;;;;;;;5053344;28;20036;-74
2022/09/21 11:29:09;;;;;;;;;;;;;;;;;;5057726;28;20444;-73
2022/09/21 11:32:00;;;;;;;1.88;1.30;;;;;;;;;;5053774;28;19950;-75
2022/09/21 11:34:38;;;;;;;2.30;1.50;;;;;;;;;;5056096;28;20021;-75
2022/09/21 11:37:13;;;;;;;2.33;1.60;;;;;;;;;;5061934;28;20028;-75
2022/09/21 11:39:48;;;;;;;1.85;1.40;;;;;;;;;;5054653;28;20099;-74
2022/09/21 11:42:20;;;;;;;2.03;1.42;;;;;;;;;;5057815;28;20251;-75
2022/09/21 11:44:58;;;;;;;2.90;1.40;;;;;;;;;;5060985;28;20089;-75
2022/09/21 11:47:27;;;;;;;5.60;1.33;;;;;;;;;;5059711;28;20028;-75
2022/09/21 11:50:14;;;;;;;1.92;1.30;;;;;;;;;;5059637;28;20614;-75
2022/09/21 11:52:50;;;;;;;5.97;1.40;;;;;;;;;;5060013;28;20017;-75
2022/09/21 11:55:22;;;;;;;2.17;1.40;;;;;;;;;;5058674;28;20078;-75
2022/09/21 11:57:50;;;;;;;3.35;1.40;;;;;;;;;;5057610;28;20020;-75
2022/09/21 12:00:18;;;;;;;4.55;1.60;;;;;;;;;;5057383;28;20028;-75
2022/09/21 12:02:53;;;;;;;3.25;1.58;;;;;;;;;;5057308;28;20557;-74
2022/09/21 12:05:19;;;;;;;2.90;1.30;;;;;;;;;;5058156;28;20082;-75
2022/09/21 12:08:04;;;;;;;2.13;1.40;;;;;;;;;;5057540;28;20059;-74
2022/09/21 12:10:45;;;;;;;2.70;1.40;;;;;;;;;;5062799;28;20380;-76
2022/09/21 12:13:23;;;;;;;2.67;1.23;;;;;;;;;;5057061;28;20509;-74
2022/09/21 12:16:10;;;;;;;2.50;1.42;;;;;;;;;;5060053;28;20115;-75
2022/09/21 12:18:49;;;;;;;2.92;1.60;;;;;;;;;;5058276;28;20034;-74
2022/09/21 12:21:21;;;;;;;3.22;1.20;;;;;;;;;;5050790;28;20086;-80
2022/09/21 12:23:53;;;;;;;1.60;1.20;;;;;;;;;;5056073;28;20044;-78
2022/09/21 12:26:22;;;;;;;2.97;1.25;;;;;;;;;;5062158;28;20015;-80
2022/09/21 12:28:55;;;;;;;1.83;1.20;;;;;;;;;;5062147;28;20028;-75
2022/09/21 12:31:24;;;;;;;3.13;1.20;;;;;;;;;;5058832;28;20108;-81
2022/09/21 12:33:50;;;;;;;1.90;1.20;;;;;;;;;;5059571;28;20013;-81
2022/09/21 12:36:20;;;;;;;2.03;1.27;;;;;;;;;;5054541;28;20377;-83
2022/09/21 12:38:55;;;;;;;2.50;1.30;;;;;;;;;;5057498;28;20064;-83
2022/09/21 12:41:30;;;;;;;4.18;1.50;;;;;;;;;;5059192;28;20033;-78
2022/09/21 12:43:57;;;;;;;3.75;1.40;;;;;;;;;;5054768;28;20429;-79
2022/09/21 12:46:29;;;;;;;2.38;1.30;;;;;;;;;;5051577;28;20028;-80
2022/09/21 12:48:56;;;;;;;3.20;1.42;;;;;;;;;;5058211;28;20024;-81
2022/09/21 12:51:25;;;;;;;5.20;1.50;;;;;;;;;;5047371;28;20409;-78
2022/09/21 12:53:54;;;;;;;2.38;1.33;;;;;;;;;;5056504;28;20037;-80
2022/09/21 12:56:39;;;;;;;3.55;1.48;;;;;;;;;;5059864;28;20470;-79
2022/09/21 12:59:13;;;;;;;2.17;1.25;;;;;;;;;;5055796;28;20071;-82
2022/09/21 13:01:49;;;;;;;2.35;1.50;;;;;;;;;;5058059;28;20027;-77
2022/09/21 13:04:34;;;;;;;2.38;1.38;;;;;;;;;;5058494;28;20105;-74
2022/09/21 13:07:07;;;;;;;1.73;1.38;;;;;;;;;;5055737;28;20025;-74
2022/09/21 13:09:34;;;;;;;2.45;1.60;;;;;;;;;;5054986;28;20032;-77
2022/09/21 13:12:03;;;;;;;2.92;1.55;;;;;;;;;;5057486;28;20465;-79
2022/09/21 13:14:33;;;;;;;3.50;1.58;;;;;;;;;;5058657;28;20373;-77
2022/09/21 13:17:01;;;;;;;1.95;1.30;;;;;;;;;;5054862;28;20032;-79
2022/09/21 13:19:31;;;;;;;1.85;1.27;;;;;;;;;;5058107;28;20017;-81
2022/09/21 13:22:17;;;;;;;2.30;1.30;;;;;;;;;;5055398;28;20032;-81
2022/09/21 13:24:47;;;;;;;3.10;1.70;;;;;;;;;;5052593;28;20041;-74
2022/09/21 13:27:14;;;;;;;5.45;1.63;;;;;;;;;;5056207;28;20077;-75
2022/09/21 13:29:41;;;;;;;3.80;1.83;;;;;;;;;;5056909;28;20016;-79
2022/09/21 13:32:10;;;;;;;2.60;1.70;;;;;;;;;;5056336;28;20025;-77
2022/09/21 13:34:41;;;;;;;4.95;1.70;;;;;;;;;;5060380;28;20025;-76
2022/09/21 13:37:12;;;;;;;2.00;1.27;;;;;;;;;;5049415;28;20098;-76
2022/09/21 13:39:48;;;;;;;1.98;1.38;;;;;;;;;;5048036;28;20493;-78
2022/09/21 13:42:29;;;;;;;2.40;1.40;;;;;;;;;;5044617;28;20028;-78
2022/09/21 13:44:56;;;;;;;3.63;1.50;;;;;;;;;;5052557;28;20040;-73
2022/09/21 13:47:33;;;;;;;2.00;1.33;;;;;;;;;;5047143;28;20171;-77
2022/09/21 13:50:03;;;;;;;3.40;1.63;;;;;;;;;;5046520;28;20132;-77
2022/09/21 13:52:58;;;;;;;1.85;1.23;;;;;;;;;;5044606;28;20041;-77
2022/09/21 13:55:29;;;;;;;2.28;1.30;;;;;;;;;;5045923;28;20040;-75
2022/09/21 13:57:58;;;;;;;2.67;1.50;;;;;;;;;;5043582;28;20040;-76
2022/09/21 14:00:28;;;;;;;2.58;1.35;;;;;;;;;;5059740;28;20086;-78
2022/09/21 14:03:26;;;;;;;5.30;1.42;;;;;;;;;;5044760;28;20021;-77
2022/09/21 14:06:00;;;;;;;4.20;1.55;;;;;;;;;;5038327;28;20063;-78
2022/09/21 14:08:32;;;;;;;2.38;1.33;;;;;;;;;;5053810;28;20029;-79
2022/09/21 14:11:04;;;;;;;2.85;1.08;;;;;;;;;;5060455;28;20099;-80
2022/09/21 14:13:30;;;;;;;2.42;1.40;;;;;;;;;;5057948;28;20039;-81
2022/09/21 14:16:16;;;;;;;4.30;1.90;;;;;;;;;;5059469;28;20024;-78
2022/09/21 14:18:45;;;;;;;2.65;1.63;;;;;;;;;;5056979;28;20021;-80
2022/09/21 14:21:18;;;;;;;2.22;1.63;;;;;;;;;;5052651;28;20066;-80
2022/09/21 14:24:03;;;;;;;3.78;1.35;;;;;;;;;;5059598;28;20044;-78
2022/09/21 14:26:39;;;;;;;2.22;1.50;;;;;;;;;;5055796;28;20021;-79
2022/09/21 14:29:28;;;;;;;2.97;1.50;;;;;;;;;;5059643;28;20044;-77
2022/09/21 14:31:56;;;;;;;2.55;1.50;;;;;;;;;;5048656;28;20103;-75
2022/09/21 14:34:35;;;;;;;2.60;1.60;;;;;;;;;;5053572;28;20032;-76
2022/09/21 14:37:04;;;;;;;2.63;1.73;;;;;;;;;;5050535;28;20044;-80
2022/09/21 14:39:33;;;;;;;2.15;1.67;;;;;;;;;;5055588;28;20420;-76
2022/09/21 14:42:01;;;;;;;2.40;1.52;;;;;;;;;;5054006;28;20220;-76
2022/09/21 14:44:29;;;;;;;2.13;1.35;;;;;;;;;;5054461;28;20465;-78
2022/09/21 14:46:58;;;;;;;3.40;1.88;;;;;;;;;;5058762;28;20028;-89
2022/09/21 14:49:37;;;;;;;3.38;2.10;;;;;;;;;;5053080;28;20021;-81
2022/09/21 14:52:10;;;;;;;4.78;1.67;;;;;;;;;;5061167;28;20291;-90
2022/09/21 14:54:51;;;;;;;3.67;1.88;;;;;;;;;;5058950;28;20036;-83
2022/09/21 14:57:36;;;;;;;2.22;1.60;;;;;;;;;;5054114;28;20031;-78
2022/09/21 15:00:03;;;;;;;3.65;1.65;;;;;;;;;;5054655;28;20040;-80
2022/09/21 15:02:31;;;;;;;4.63;1.65;;;;;;;;;;5052773;28;20020;-78
2022/09/21 15:05:02;;;;;;;2.25;1.40;;;;;;;;;;5062412;28;20025;-78
2022/09/21 15:13:20;;;;;;;2.60;1.40;;;;;;;;;;5063947;28;20043;-77
2022/09/21 15:16:06;;;;;;;3.33;1.50;;;;;;;;;;5064612;28;20485;-80
2022/09/21 15:18:35;;;;;;;2.78;1.50;;;;;;;;;;5061994;28;20031;-88